createdAt,value
2018-07-20T00:01:21.589Z,5.10
2018-07-20T00:03:50.617Z,4.90
2018-07-20T00:06:19.654Z,4.30
2018-07-20T00:08:48.679Z,5.07
2018-07-20T00:11:17.749Z,4.77
2018-07-20T00:13:46.774Z,4.67
2018-07-20T00:16:15.842Z,5.00
2018-07-20T00:18:44.880Z,5.07
2018-07-20T00:21:13.902Z,5.70
2018-07-20T00:23:43.241Z,5.03
2018-07-20T00:26:12.268Z,4.90
2018-07-20T00:28:41.322Z,5.00
2018-07-20T00:31:10.350Z,5.27
2018-07-20T00:33:39.382Z,4.97
2018-07-20T00:36:08.527Z,5.30
2018-07-20T00:38:37.099Z,5.67
2018-07-20T00:41:06.249Z,4.93
2018-07-20T00:43:35.334Z,5.17
2018-07-20T00:46:04.523Z,5.27
2018-07-20T00:48:33.800Z,4.47
2018-07-20T00:51:03.115Z,5.03
2018-07-20T00:53:32.382Z,5.53
2018-07-20T00:56:01.662Z,5.20
2018-07-20T00:58:30.934Z,5.30
2018-07-20T01:01:00.266Z,5.17
2018-07-20T01:03:29.579Z,4.80
2018-07-20T01:05:59.020Z,4.97
2018-07-20T01:08:28.605Z,5.30
2018-07-20T01:10:57.887Z,4.77
2018-07-20T01:13:27.206Z,5.00
2018-07-20T01:15:56.451Z,5.30
2018-07-20T01:18:25.729Z,5.03
2018-07-20T01:20:55.091Z,5.63
2018-07-20T01:23:24.387Z,4.37
2018-07-20T01:25:53.691Z,4.70
2018-07-20T01:28:22.903Z,4.80
2018-07-20T01:30:52.131Z,5.00
2018-07-20T01:33:21.278Z,4.07
2018-07-20T01:35:50.582Z,5.13
2018-07-20T01:38:19.854Z,4.93
2018-07-20T01:40:49.086Z,5.03
2018-07-20T01:43:18.391Z,5.03
2018-07-20T01:45:47.686Z,4.80
2018-07-20T01:48:17.009Z,5.83
2018-07-20T01:50:46.315Z,4.53
2018-07-20T01:53:15.603Z,4.67
2018-07-20T01:55:44.903Z,4.90
2018-07-20T01:58:14.186Z,4.60
2018-07-20T02:00:43.555Z,4.30
2018-07-20T02:03:12.866Z,5.10
2018-07-20T02:05:42.138Z,5.97
2018-07-20T02:08:11.437Z,4.47
2018-07-20T02:10:40.706Z,4.97
2018-07-20T02:13:10.002Z,5.17
2018-07-20T02:15:39.263Z,4.70
2018-07-20T02:18:08.533Z,4.60
2018-07-20T02:20:37.849Z,4.57
2018-07-20T02:23:07.209Z,4.63
2018-07-20T02:25:36.490Z,5.10
2018-07-20T02:28:05.783Z,4.83
2018-07-20T02:30:35.036Z,4.60
2018-07-20T02:33:04.320Z,4.73
2018-07-20T02:35:33.610Z,4.53
2018-07-20T02:38:03.021Z,5.53
2018-07-20T02:40:32.396Z,5.13
2018-07-20T02:43:01.708Z,4.90
2018-07-20T02:45:31.411Z,4.77
2018-07-20T02:48:00.762Z,5.10
2018-07-20T02:50:30.120Z,4.73
2018-07-20T02:52:59.423Z,4.83
2018-07-20T02:55:28.693Z,4.83
2018-07-20T02:57:58.036Z,4.50
2018-07-20T03:00:27.374Z,4.40
2018-07-20T03:02:56.631Z,4.80
2018-07-20T03:05:25.931Z,4.93
2018-07-20T03:07:55.117Z,4.67
2018-07-20T03:10:24.510Z,5.30
2018-07-20T03:12:53.735Z,5.20
2018-07-20T03:15:23.151Z,4.53
2018-07-20T03:17:52.435Z,4.93
2018-07-20T03:20:21.809Z,5.40
2018-07-20T03:22:51.171Z,4.87
2018-07-20T03:25:20.418Z,4.40
2018-07-20T03:27:49.785Z,4.83
2018-07-20T03:30:19.119Z,5.27
2018-07-20T03:32:48.485Z,5.30
2018-07-20T03:35:17.830Z,5.60
2018-07-20T03:37:47.207Z,4.70
2018-07-20T03:40:16.511Z,4.60
2018-07-20T03:42:45.883Z,4.80
2018-07-20T03:45:15.164Z,4.97
2018-07-20T03:47:44.516Z,5.30
2018-07-20T03:50:13.759Z,5.50
2018-07-20T03:52:43.059Z,5.60
2018-07-20T03:55:12.279Z,4.87
2018-07-20T03:57:41.622Z,4.63
2018-07-20T04:00:10.924Z,5.23
2018-07-20T04:02:40.194Z,4.63
2018-07-20T04:05:09.507Z,5.10
2018-07-20T04:07:38.742Z,5.67
2018-07-20T04:10:08.137Z,5.60
2018-07-20T04:12:37.455Z,4.80
2018-07-20T04:15:06.883Z,5.37
2018-07-20T04:17:40.601Z,4.53
2018-07-20T04:20:09.869Z,5.13
2018-07-20T04:22:39.257Z,5.30
2018-07-20T04:25:08.638Z,5.50
2018-07-20T04:27:38.003Z,5.47
2018-07-20T04:30:11.423Z,5.03
2018-07-20T04:32:40.719Z,4.50
2018-07-20T04:35:10.810Z,5.23
2018-07-20T04:37:40.248Z,5.27
2018-07-20T04:40:09.696Z,5.17
2018-07-20T04:42:39.020Z,5.43
2018-07-20T04:45:08.354Z,5.33
2018-07-20T04:47:37.632Z,5.90
2018-07-20T04:50:07.172Z,5.30
2018-07-20T04:52:36.547Z,5.67
2018-07-20T04:55:06.011Z,5.47
2018-07-20T04:57:35.338Z,5.50
2018-07-20T05:00:05.091Z,6.73
2018-07-20T05:02:34.378Z,5.43
2018-07-20T05:05:03.682Z,5.63
2018-07-20T05:07:32.929Z,5.57
2018-07-20T05:10:02.263Z,5.80
2018-07-20T05:12:31.551Z,4.93
2018-07-20T05:15:00.859Z,5.50
2018-07-20T05:17:30.179Z,4.80
2018-07-20T05:19:59.419Z,4.80
2018-07-20T05:22:28.626Z,4.67
2018-07-20T05:24:57.899Z,5.20
2018-07-20T05:27:27.210Z,5.17
2018-07-20T05:29:56.456Z,5.07
2018-07-20T05:32:25.795Z,5.60
2018-07-20T05:34:55.103Z,5.30
2018-07-20T05:37:24.515Z,5.40
2018-07-20T05:39:53.892Z,5.17
2018-07-20T05:42:23.202Z,5.53
2018-07-20T05:44:52.610Z,5.40
2018-07-20T05:47:22.000Z,5.33
2018-07-20T05:49:51.294Z,5.43
2018-07-20T05:52:20.530Z,4.93
2018-07-20T05:54:49.743Z,4.90
2018-07-20T05:57:19.054Z,5.60
2018-07-20T05:59:48.346Z,5.30
2018-07-20T06:02:17.626Z,4.90
2018-07-20T06:04:47.087Z,6.50
2018-07-20T06:07:16.303Z,4.53
2018-07-20T06:09:45.525Z,5.20
2018-07-20T06:12:14.734Z,5.07
2018-07-20T06:14:44.049Z,5.47
2018-07-20T06:17:13.305Z,5.07
2018-07-20T06:19:42.657Z,4.23
2018-07-20T06:22:12.004Z,5.13
2018-07-20T06:24:40.745Z,4.93
2018-07-20T06:27:10.027Z,4.87
2018-07-20T06:29:39.360Z,4.97
2018-07-20T06:32:08.782Z,4.77
2018-07-20T06:34:38.094Z,4.27
2018-07-20T06:37:07.511Z,4.43
2018-07-20T06:39:36.773Z,4.37
2018-07-20T06:42:06.097Z,4.27
2018-07-20T06:44:35.421Z,4.67
2018-07-20T06:47:04.643Z,4.10
2018-07-20T06:49:33.898Z,3.77
2018-07-20T06:52:03.294Z,4.00
2018-07-20T06:54:32.583Z,4.10
2018-07-20T06:57:01.938Z,4.67
2018-07-20T06:59:31.202Z,4.10
2018-07-20T07:02:00.446Z,4.00
2018-07-20T07:04:29.752Z,5.07
2018-07-20T07:06:59.095Z,4.40
2018-07-20T07:09:28.445Z,3.93
2018-07-20T07:11:57.718Z,4.40
2018-07-20T07:14:26.936Z,3.97
2018-07-20T07:16:56.160Z,5.27
2018-07-20T07:19:25.466Z,4.30
2018-07-20T07:21:54.759Z,3.97
2018-07-20T07:24:24.093Z,3.90
2018-07-20T07:26:53.579Z,4.67
2018-07-20T07:29:22.879Z,3.40
2018-07-20T07:31:52.134Z,3.63
2018-07-20T07:34:21.418Z,5.00
2018-07-20T07:36:50.662Z,3.80
2018-07-20T07:39:19.988Z,4.10
2018-07-20T07:41:49.275Z,4.47
2018-07-20T07:44:18.697Z,4.17
2018-07-20T07:46:47.974Z,4.03
2018-07-20T07:49:17.250Z,3.67
2018-07-20T07:51:46.495Z,3.77
2018-07-20T07:54:16.764Z,3.97
2018-07-20T07:56:46.058Z,4.30
2018-07-20T07:59:15.355Z,4.37
2018-07-20T08:01:44.605Z,3.60
2018-07-20T08:04:13.977Z,3.97
2018-07-20T08:06:43.198Z,3.83
2018-07-20T08:09:14.228Z,4.00
2018-07-20T08:11:43.527Z,4.23
2018-07-20T08:14:13.638Z,4.20
2018-07-20T08:16:42.854Z,3.90
2018-07-20T08:19:12.163Z,3.70
2018-07-20T08:21:41.794Z,3.57
2018-07-20T08:24:11.154Z,4.07
2018-07-20T08:26:40.445Z,3.60
2018-07-20T08:29:09.670Z,3.77
2018-07-20T08:31:38.937Z,4.20
2018-07-20T08:34:08.252Z,4.20
2018-07-20T08:36:37.583Z,3.80
2018-07-20T08:39:09.619Z,4.43
2018-07-20T08:41:39.286Z,3.40
2018-07-20T08:44:08.506Z,3.83
2018-07-20T08:46:37.969Z,4.00
2018-07-20T08:49:07.184Z,3.63
2018-07-20T08:51:36.586Z,4.07
2018-07-20T08:54:05.982Z,4.00
2018-07-20T08:56:35.278Z,4.23
2018-07-20T08:59:04.608Z,3.70
2018-07-20T09:04:44.775Z,4.00
2018-07-20T09:07:14.055Z,3.73
2018-07-20T09:09:43.334Z,4.10
2018-07-20T09:12:12.683Z,5.17
2018-07-20T09:14:42.043Z,4.50
2018-07-20T09:17:11.346Z,3.57
2018-07-20T09:19:40.671Z,3.70
2018-07-20T09:22:09.955Z,3.37
2018-07-20T09:24:39.253Z,3.87
2018-07-20T09:27:15.022Z,3.70
2018-07-20T09:29:44.352Z,3.27
2018-07-20T09:32:13.724Z,3.60
2018-07-20T09:35:02.272Z,3.30
2018-07-20T09:37:31.727Z,3.65
2018-07-20T09:40:01.083Z,3.30
2018-07-20T09:42:30.370Z,3.90
2018-07-20T09:45:06.111Z,3.57
2018-07-20T09:47:35.515Z,3.50
2018-07-20T09:50:06.313Z,2.90
2018-07-20T09:52:35.635Z,3.97
2018-07-20T09:55:05.067Z,3.70
2018-07-20T09:57:34.454Z,3.58
2018-07-20T10:00:03.988Z,3.70
2018-07-20T10:02:34.513Z,3.37
2018-07-20T10:05:03.870Z,3.90
2018-07-20T10:07:33.067Z,3.60
2018-07-20T10:10:02.330Z,3.95
2018-07-20T10:12:31.712Z,3.10
2018-07-20T10:15:01.323Z,3.95
2018-07-20T10:17:30.714Z,3.45
2018-07-20T10:20:00.288Z,4.15
2018-07-20T10:22:29.623Z,3.75
2018-07-20T10:24:58.830Z,3.85
2018-07-20T10:27:28.187Z,3.42
2018-07-20T10:29:57.456Z,3.37
2018-07-20T10:32:34.108Z,3.02
2018-07-20T10:35:03.595Z,3.20
2018-07-20T10:37:32.891Z,3.47
2018-07-20T10:40:02.815Z,3.25
2018-07-20T10:42:32.107Z,3.30
2018-07-20T10:45:01.439Z,3.70
2018-07-20T10:47:31.962Z,3.75
2018-07-20T10:50:11.896Z,3.55
2018-07-20T10:52:41.784Z,3.80
2018-07-20T10:55:23.235Z,3.55
2018-07-20T10:57:52.768Z,3.22
2018-07-20T11:00:22.155Z,3.05
2018-07-20T11:02:51.489Z,3.67
2018-07-20T11:05:20.795Z,4.00
2018-07-20T11:07:50.115Z,3.77
2018-07-20T11:10:19.446Z,3.40
2018-07-20T11:12:48.791Z,3.10
2018-07-20T11:15:18.240Z,3.22
2018-07-20T11:17:57.333Z,3.65
2018-07-20T11:20:26.794Z,3.60
2018-07-20T11:22:55.628Z,3.87
2018-07-20T11:25:24.370Z,3.75
2018-07-20T11:27:53.121Z,3.40
2018-07-20T11:30:21.946Z,3.58
2018-07-20T11:32:50.778Z,3.50
2018-07-20T11:35:19.618Z,4.55
2018-07-20T11:37:48.440Z,3.52
2018-07-20T11:40:17.204Z,3.70
2018-07-20T11:42:46.023Z,3.60
2018-07-20T11:45:14.842Z,3.80
2018-07-20T11:47:43.621Z,4.03
2018-07-20T11:50:12.613Z,3.92
2018-07-20T11:55:16.401Z,4.03
2018-07-20T11:57:45.170Z,4.08
2018-07-20T12:00:14.065Z,3.90
2018-07-20T12:02:42.885Z,3.87
2018-07-20T12:05:11.663Z,3.75
2018-07-20T12:07:40.463Z,3.80
2018-07-20T12:10:09.254Z,4.42
2018-07-20T12:12:37.941Z,3.92
2018-07-20T12:15:06.766Z,4.25
2018-07-20T12:17:35.450Z,4.00
2018-07-20T12:20:04.194Z,3.70
2018-07-20T12:22:32.951Z,4.10
2018-07-20T12:25:01.703Z,4.08
2018-07-20T12:27:30.482Z,4.30
2018-07-20T12:29:59.173Z,4.25
2018-07-20T12:32:27.931Z,3.60
2018-07-20T12:34:56.741Z,4.00
2018-07-20T12:37:25.552Z,3.58
2018-07-20T12:39:54.350Z,3.85
2018-07-20T12:42:23.046Z,3.62
2018-07-20T12:44:51.825Z,3.87
2018-07-20T12:47:20.577Z,4.12
2018-07-20T12:49:49.279Z,3.52
2018-07-20T12:52:18.026Z,4.20
2018-07-20T12:54:46.925Z,3.72
2018-07-20T12:57:15.721Z,3.80
2018-07-20T12:59:44.563Z,3.95
2018-07-20T13:02:13.284Z,3.72
2018-07-20T13:04:42.089Z,4.08
2018-07-20T13:07:10.841Z,4.05
2018-07-20T13:09:39.638Z,3.70
2018-07-20T13:12:12.429Z,3.92
2018-07-20T13:14:41.287Z,3.58
2018-07-20T13:17:10.103Z,4.75
2018-07-20T13:19:39.395Z,3.83
2018-07-20T13:22:08.746Z,4.10
2018-07-20T13:24:37.488Z,4.25
2018-07-20T13:27:06.254Z,3.70
2018-07-20T13:29:35.034Z,3.98
2018-07-20T13:32:03.812Z,4.40
2018-07-20T13:34:32.600Z,4.45
2018-07-20T13:37:01.370Z,4.28
2018-07-20T13:39:30.137Z,4.25
2018-07-20T13:41:58.944Z,3.77
2018-07-20T13:44:27.696Z,4.08
2018-07-20T13:46:56.460Z,4.10
2018-07-20T13:49:25.198Z,4.42
2018-07-20T13:51:53.890Z,4.00
2018-07-20T13:54:22.615Z,3.75
2018-07-20T13:56:51.361Z,3.95
2018-07-20T13:59:20.811Z,4.15
2018-07-20T14:01:49.620Z,3.92
2018-07-20T14:04:18.389Z,4.65
2018-07-20T14:06:47.135Z,4.28
2018-07-20T14:09:15.842Z,4.25
2018-07-20T14:11:44.670Z,4.20
2018-07-20T14:14:13.378Z,4.28
2018-07-20T14:16:42.190Z,3.85
2018-07-20T14:19:10.975Z,4.15
2018-07-20T14:21:39.797Z,4.15
2018-07-20T14:24:08.619Z,4.12
2018-07-20T14:26:37.385Z,4.37
2018-07-20T14:29:06.118Z,4.17
2018-07-20T14:31:34.908Z,3.92
2018-07-20T14:34:03.626Z,4.15
2018-07-20T14:36:33.539Z,4.25
2018-07-20T14:39:02.314Z,3.83
2018-07-20T14:41:31.098Z,4.25
2018-07-20T14:43:59.843Z,4.00
2018-07-20T14:46:28.634Z,4.22
2018-07-20T14:48:57.334Z,4.03
2018-07-20T14:51:26.055Z,4.65
2018-07-20T14:53:54.810Z,3.70
2018-07-20T14:56:23.590Z,4.62
2018-07-20T14:58:52.397Z,4.17
2018-07-20T15:01:21.200Z,4.10
2018-07-20T15:03:49.990Z,4.47
2018-07-20T15:06:18.753Z,4.30
2018-07-20T15:08:47.527Z,3.52
2018-07-20T15:11:16.287Z,4.72
2018-07-20T15:13:45.070Z,4.17
2018-07-20T15:16:13.837Z,4.25
2018-07-20T15:18:42.611Z,4.58
2018-07-20T15:21:11.384Z,4.47
2018-07-20T15:23:40.105Z,4.00
2018-07-20T15:26:08.850Z,3.83
2018-07-20T15:28:37.624Z,3.60
2018-07-20T15:31:06.418Z,3.65
2018-07-20T15:33:35.191Z,4.05
2018-07-20T15:36:04.013Z,4.60
2018-07-20T15:38:32.777Z,4.42
2018-07-20T15:41:01.559Z,3.90
2018-07-20T15:43:30.356Z,4.55
2018-07-20T15:46:05.967Z,4.72
2018-07-20T15:48:27.899Z,4.20
2018-07-20T15:51:06.017Z,4.08
2018-07-20T15:53:36.269Z,4.03
2018-07-20T15:56:03.954Z,4.47
2018-07-20T15:58:32.880Z,3.92
2018-07-20T16:01:01.658Z,3.75
2018-07-20T16:03:30.626Z,4.45
2018-07-20T16:05:59.471Z,3.67
2018-07-20T16:08:28.257Z,4.28
2018-07-20T16:10:57.047Z,4.15
2018-07-20T16:13:25.830Z,3.85
2018-07-20T16:15:54.544Z,4.37
2018-07-20T16:18:23.416Z,4.37
2018-07-20T16:20:52.129Z,4.42
2018-07-20T16:23:21.020Z,4.30
2018-07-20T16:25:49.934Z,4.00
2018-07-20T16:28:18.669Z,4.80
2018-07-20T16:30:47.452Z,4.37
2018-07-20T16:33:16.254Z,4.58
2018-07-20T16:35:44.993Z,4.22
2018-07-20T16:38:13.785Z,4.45
2018-07-20T16:40:42.600Z,4.47
2018-07-20T16:43:11.449Z,3.77
2018-07-20T16:45:40.225Z,4.25
2018-07-20T16:48:09.017Z,4.12
2018-07-20T16:50:37.820Z,4.35
2018-07-20T16:53:06.592Z,3.95
2018-07-20T16:55:35.305Z,4.28
2018-07-20T16:58:04.066Z,4.50
2018-07-20T17:00:32.905Z,4.58
2018-07-20T17:03:01.729Z,4.55
2018-07-20T17:05:30.537Z,4.37
2018-07-20T17:07:59.311Z,4.33
2018-07-20T17:10:28.213Z,4.42
2018-07-20T17:12:57.036Z,4.10
2018-07-20T17:15:25.896Z,4.42
2018-07-20T17:17:56.301Z,4.47
2018-07-20T17:20:25.059Z,4.55
2018-07-20T17:22:53.934Z,4.78
2018-07-20T17:25:22.694Z,4.15
2018-07-20T17:27:51.440Z,4.83
2018-07-20T17:30:20.197Z,5.40
2018-07-20T17:32:49.011Z,4.75
2018-07-20T17:35:17.762Z,4.75
2018-07-20T17:37:46.542Z,4.53
2018-07-20T17:40:15.338Z,4.00
2018-07-20T17:42:44.096Z,4.33
2018-07-20T17:45:12.872Z,4.40
2018-07-20T17:47:41.745Z,4.37
2018-07-20T17:50:10.522Z,7.37
2018-07-20T17:52:39.406Z,11.12
2018-07-20T17:55:08.118Z,6.58
2018-07-20T17:57:37.621Z,21.65
2018-07-20T18:00:07.203Z,156.72
2018-07-20T18:02:36.527Z,163.15
2018-07-20T18:05:06.297Z,21.35
2018-07-20T18:07:35.555Z,7.30
2018-07-20T18:10:05.366Z,4.78
2018-07-20T18:12:34.743Z,4.33
2018-07-20T18:15:04.090Z,4.30
2018-07-20T18:17:33.465Z,4.08
2018-07-20T18:20:02.766Z,4.33
2018-07-20T18:22:32.019Z,4.40
2018-07-20T18:25:01.523Z,4.20
2018-07-20T18:27:30.886Z,4.55
2018-07-20T18:30:00.444Z,4.62
2018-07-20T18:32:29.822Z,4.22
2018-07-20T18:34:59.039Z,4.72
2018-07-20T18:37:28.414Z,4.28
2018-07-20T18:39:57.671Z,4.45
2018-07-20T18:42:26.990Z,4.03
2018-07-20T18:44:56.276Z,4.78
2018-07-20T18:47:25.648Z,4.42
2018-07-20T18:49:55.018Z,4.28
2018-07-20T18:52:24.294Z,4.05
2018-07-20T18:54:53.657Z,4.42
2018-07-20T18:57:22.974Z,4.35
2018-07-20T18:59:52.326Z,4.30
2018-07-20T19:02:21.595Z,4.33
2018-07-20T19:04:50.984Z,4.07
2018-07-20T19:07:19.721Z,4.20
2018-07-20T19:09:49.002Z,4.83
2018-07-20T19:12:18.298Z,4.90
2018-07-20T19:14:47.507Z,4.43
2018-07-20T19:17:16.765Z,4.97
2018-07-20T19:19:46.003Z,4.20
2018-07-20T19:22:15.251Z,4.90
2018-07-20T19:24:54.087Z,4.20
2018-07-20T19:27:23.410Z,4.90
2018-07-20T19:29:52.691Z,4.80
2018-07-20T19:32:22.013Z,5.40
2018-07-20T19:34:51.333Z,5.30
2018-07-20T19:37:20.594Z,5.00
2018-07-20T19:40:00.967Z,4.53
2018-07-20T19:42:30.301Z,4.80
2018-07-20T19:45:03.856Z,4.67
2018-07-20T19:47:33.209Z,4.97
2018-07-20T19:50:02.626Z,4.77
2018-07-20T19:52:31.965Z,4.83
2018-07-20T19:55:01.312Z,5.63
2018-07-20T19:57:30.518Z,5.00
2018-07-20T19:59:59.786Z,4.83
2018-07-20T20:02:29.134Z,5.10
2018-07-20T20:04:58.451Z,5.20
2018-07-20T20:07:27.794Z,4.10
2018-07-20T20:09:57.098Z,4.67
2018-07-20T20:12:26.383Z,5.03
2018-07-20T20:14:55.674Z,5.23
2018-07-20T20:17:25.042Z,4.30
2018-07-20T20:19:54.881Z,4.40
2018-07-20T20:22:24.059Z,4.33
2018-07-20T20:24:53.424Z,4.10
2018-07-20T20:27:22.609Z,4.57
2018-07-20T20:30:01.518Z,4.57
2018-07-20T20:32:30.879Z,4.13
2018-07-20T20:35:00.230Z,4.03
2018-07-20T20:37:29.518Z,4.43
2018-07-20T20:39:58.815Z,4.40
2018-07-20T20:42:28.185Z,4.97
2018-07-20T20:44:57.402Z,5.13
2018-07-20T20:47:26.549Z,4.73
2018-07-20T20:49:55.943Z,5.33
2018-07-20T20:52:25.272Z,4.73
2018-07-20T20:54:54.571Z,4.80
2018-07-20T20:57:23.860Z,4.53
2018-07-20T21:00:00.231Z,4.97
2018-07-20T21:02:29.515Z,5.20
2018-07-20T21:04:58.799Z,4.90
2018-07-20T21:07:28.083Z,4.50
2018-07-20T21:09:57.289Z,5.13
2018-07-20T21:12:26.079Z,4.90
2018-07-20T21:14:55.359Z,5.43
2018-07-20T21:17:25.523Z,5.03
2018-07-20T21:25:40.455Z,4.93
2018-07-20T21:28:09.763Z,4.73
2018-07-20T21:30:38.968Z,5.37
2018-07-20T21:33:08.195Z,5.50
2018-07-20T21:35:37.469Z,5.33
2018-07-20T21:38:06.839Z,5.30
2018-07-20T21:40:36.230Z,5.17
2018-07-20T21:43:05.539Z,5.30
2018-07-20T21:45:34.889Z,5.20
2018-07-20T21:48:04.323Z,4.63
2018-07-20T21:50:33.662Z,4.90
2018-07-20T21:53:02.939Z,5.50
2018-07-20T21:55:32.282Z,4.73
2018-07-20T21:58:01.711Z,4.63
2018-07-20T22:00:30.655Z,5.13
2018-07-20T22:03:00.028Z,4.93
2018-07-20T22:05:29.338Z,5.60
2018-07-20T22:07:58.671Z,5.00
2018-07-20T22:10:27.985Z,5.00
2018-07-20T22:12:57.163Z,5.03
2018-07-20T22:15:26.418Z,4.90
2018-07-20T22:17:55.659Z,5.27
2018-07-20T22:20:24.903Z,6.03
2018-07-20T22:22:54.243Z,5.77
2018-07-20T22:25:23.563Z,6.20
2018-07-20T22:27:52.863Z,5.90
2018-07-20T22:30:22.146Z,5.87
2018-07-20T22:32:51.415Z,5.17
2018-07-20T22:35:20.723Z,5.60
2018-07-20T22:37:49.918Z,5.27
2018-07-20T22:40:19.203Z,4.90
2018-07-20T22:42:48.425Z,4.87
2018-07-20T22:45:18.966Z,4.73
2018-07-20T22:47:48.214Z,4.97
2018-07-20T22:50:17.499Z,5.30
2018-07-20T22:52:46.787Z,5.67
2018-07-20T22:55:16.058Z,6.70
2018-07-20T22:57:45.223Z,6.00
2018-07-20T23:00:14.447Z,6.43
2018-07-20T23:02:43.695Z,5.70
2018-07-20T23:05:13.047Z,5.53
2018-07-20T23:07:42.288Z,5.63
2018-07-20T23:10:11.580Z,5.80
2018-07-20T23:12:40.811Z,6.10
2018-07-20T23:15:10.106Z,6.63
2018-07-20T23:17:39.318Z,5.70
2018-07-20T23:20:08.564Z,5.33
2018-07-20T23:22:37.819Z,5.10
2018-07-20T23:25:07.130Z,5.93
2018-07-20T23:27:36.423Z,5.93
2018-07-20T23:30:06.376Z,6.17
2018-07-20T23:32:35.763Z,5.73
2018-07-20T23:35:05.027Z,6.07
2018-07-20T23:37:34.351Z,6.20
2018-07-20T23:40:03.680Z,9.03
2018-07-20T23:42:32.973Z,7.67
2018-07-20T23:45:02.258Z,6.07
2018-07-20T23:47:31.571Z,7.17
2018-07-20T23:50:00.923Z,6.70
2018-07-20T23:52:30.118Z,6.63
2018-07-20T23:54:59.438Z,6.40
2018-07-20T23:57:28.611Z,5.10
2018-07-20T23:59:57.951Z,6.40
